sensor_id;sensor_type;location;lat;lon;timestamp;P1;durP1;ratioP1;P2;durP2;ratioP2
20731;SDS011;10527;52.124;5.196;2023-04-24T00:01:54;0.70;;;0.60;;
20731;SDS011;10527;52.124;5.196;2023-04-24T00:04:22;3.15;;;0.77;;
20731;SDS011;10527;52.124;5.196;2023-04-24T00:06:52;0.98;;;0.70;;
20731;SDS011;10527;52.124;5.196;2023-04-24T00:09:23;1.98;;;0.80;;
20731;SDS011;10527;52.124;5.196;2023-04-24T00:11:50;0.68;;;0.65;;
20731;SDS011;10527;52.124;5.196;2023-04-24T00:14:18;0.50;;;0.50;;
20731;SDS011;10527;52.124;5.196;2023-04-24T00:16:45;1.95;;;0.50;;
20731;SDS011;10527;52.124;5.196;2023-04-24T00:19:12;2.25;;;0.60;;
20731;SDS011;10527;52.124;5.196;2023-04-24T00:21:39;0.77;;;0.60;;
20731;SDS011;10527;52.124;5.196;2023-04-24T00:24:07;0.60;;;0.60;;
20731;SDS011;10527;52.124;5.196;2023-04-24T00:26:35;0.95;;;0.70;;
20731;SDS011;10527;52.124;5.196;2023-04-24T00:29:02;0.50;;;0.50;;
20731;SDS011;10527;52.124;5.196;2023-04-24T00:31:28;0.55;;;0.55;;
20731;SDS011;10527;52.124;5.196;2023-04-24T00:33:55;0.80;;;0.60;;
20731;SDS011;10527;52.124;5.196;2023-04-24T00:36:22;0.82;;;0.50;;
20731;SDS011;10527;52.124;5.196;2023-04-24T00:38:49;1.17;;;0.60;;
20731;SDS011;10527;52.124;5.196;2023-04-24T00:41:16;0.52;;;0.52;;
20731;SDS011;10527;52.124;5.196;2023-04-24T00:43:43;0.50;;;0.50;;
20731;SDS011;10527;52.124;5.196;2023-04-24T00:46:10;1.02;;;0.68;;
20731;SDS011;10527;52.124;5.196;2023-04-24T00:48:38;1.67;;;0.70;;
20731;SDS011;10527;52.124;5.196;2023-04-24T00:51:06;0.68;;;0.52;;
20731;SDS011;10527;52.124;5.196;2023-04-24T00:53:33;0.73;;;0.70;;
20731;SDS011;10527;52.124;5.196;2023-04-24T00:56:00;1.75;;;0.80;;
20731;SDS011;10527;52.124;5.196;2023-04-24T00:58:28;0.80;;;0.80;;
20731;SDS011;10527;52.124;5.196;2023-04-24T01:00:56;1.52;;;0.90;;
20731;SDS011;10527;52.124;5.196;2023-04-24T01:03:25;1.08;;;0.90;;
20731;SDS011;10527;52.124;5.196;2023-04-24T01:05:56;0.80;;;0.80;;
20731;SDS011;10527;52.124;5.196;2023-04-24T01:08:24;1.80;;;1.30;;
20731;SDS011;10527;52.124;5.196;2023-04-24T01:10:54;1.58;;;1.20;;
20731;SDS011;10527;52.124;5.196;2023-04-24T01:13:23;1.73;;;1.48;;
20731;SDS011;10527;52.124;5.196;2023-04-24T01:15:50;1.85;;;1.60;;
20731;SDS011;10527;52.124;5.196;2023-04-24T01:20:48;2.05;;;1.85;;
20731;SDS011;10527;52.124;5.196;2023-04-24T01:23:20;3.97;;;1.90;;
20731;SDS011;10527;52.124;5.196;2023-04-24T01:25:48;2.00;;;1.80;;
20731;SDS011;10527;52.124;5.196;2023-04-24T01:28:16;2.05;;;1.55;;
20731;SDS011;10527;52.124;5.196;2023-04-24T01:30:43;2.88;;;2.40;;
20731;SDS011;10527;52.124;5.196;2023-04-24T01:33:11;2.63;;;1.73;;
20731;SDS011;10527;52.124;5.196;2023-04-24T01:35:39;2.67;;;2.25;;
20731;SDS011;10527;52.124;5.196;2023-04-24T01:38:06;2.08;;;1.55;;
20731;SDS011;10527;52.124;5.196;2023-04-24T01:40:33;2.15;;;1.73;;
20731;SDS011;10527;52.124;5.196;2023-04-24T01:43:01;3.65;;;1.98;;
20731;SDS011;10527;52.124;5.196;2023-04-24T01:45:28;2.70;;;2.22;;
20731;SDS011;10527;52.124;5.196;2023-04-24T01:47:55;2.90;;;2.55;;
20731;SDS011;10527;52.124;5.196;2023-04-24T01:50:23;2.60;;;2.40;;
20731;SDS011;10527;52.124;5.196;2023-04-24T01:52:50;3.90;;;2.88;;
20731;SDS011;10527;52.124;5.196;2023-04-24T01:55:17;4.32;;;2.95;;
20731;SDS011;10527;52.124;5.196;2023-04-24T01:57:44;2.63;;;2.42;;
20731;SDS011;10527;52.124;5.196;2023-04-24T02:00:11;3.58;;;2.40;;
20731;SDS011;10527;52.124;5.196;2023-04-24T02:02:40;2.85;;;2.55;;
20731;SDS011;10527;52.124;5.196;2023-04-24T02:05:10;4.05;;;2.10;;
20731;SDS011;10527;52.124;5.196;2023-04-24T02:07:37;2.72;;;2.53;;
20731;SDS011;10527;52.124;5.196;2023-04-24T02:10:04;4.57;;;2.63;;
20731;SDS011;10527;52.124;5.196;2023-04-24T02:12:32;3.30;;;2.83;;
20731;SDS011;10527;52.124;5.196;2023-04-24T02:14:59;3.15;;;2.33;;
20731;SDS011;10527;52.124;5.196;2023-04-24T02:17:26;3.72;;;2.40;;
20731;SDS011;10527;52.124;5.196;2023-04-24T02:19:53;2.90;;;2.42;;
20731;SDS011;10527;52.124;5.196;2023-04-24T02:22:20;2.45;;;1.98;;
20731;SDS011;10527;52.124;5.196;2023-04-24T02:24:47;3.92;;;2.33;;
20731;SDS011;10527;52.124;5.196;2023-04-24T02:27:14;2.55;;;2.35;;
20731;SDS011;10527;52.124;5.196;2023-04-24T02:29:41;3.42;;;2.42;;
20731;SDS011;10527;52.124;5.196;2023-04-24T02:32:08;2.42;;;2.15;;
20731;SDS011;10527;52.124;5.196;2023-04-24T02:34:41;3.65;;;2.50;;
20731;SDS011;10527;52.124;5.196;2023-04-24T02:37:08;1.90;;;1.75;;
20731;SDS011;10527;52.124;5.196;2023-04-24T02:39:34;3.20;;;2.20;;
20731;SDS011;10527;52.124;5.196;2023-04-24T02:42:01;2.63;;;1.95;;
20731;SDS011;10527;52.124;5.196;2023-04-24T02:44:28;2.90;;;2.35;;
20731;SDS011;10527;52.124;5.196;2023-04-24T02:46:55;3.65;;;2.90;;
20731;SDS011;10527;52.124;5.196;2023-04-24T02:49:22;2.72;;;2.38;;
20731;SDS011;10527;52.124;5.196;2023-04-24T02:51:49;2.92;;;2.03;;
20731;SDS011;10527;52.124;5.196;2023-04-24T02:54:15;2.95;;;1.92;;
20731;SDS011;10527;52.124;5.196;2023-04-24T02:56:45;1.42;;;1.20;;
20731;SDS011;10527;52.124;5.196;2023-04-24T02:59:11;2.20;;;1.30;;
20731;SDS011;10527;52.124;5.196;2023-04-24T03:01:38;1.73;;;1.23;;
20731;SDS011;10527;52.124;5.196;2023-04-24T03:04:06;1.80;;;1.25;;
20731;SDS011;10527;52.124;5.196;2023-04-24T03:06:33;2.75;;;1.38;;
20731;SDS011;10527;52.124;5.196;2023-04-24T03:09:01;1.70;;;1.42;;
20731;SDS011;10527;52.124;5.196;2023-04-24T03:11:29;1.20;;;0.90;;
20731;SDS011;10527;52.124;5.196;2023-04-24T03:13:56;1.15;;;1.05;;
20731;SDS011;10527;52.124;5.196;2023-04-24T03:16:23;1.23;;;1.13;;
20731;SDS011;10527;52.124;5.196;2023-04-24T03:18:50;2.75;;;1.10;;
20731;SDS011;10527;52.124;5.196;2023-04-24T03:21:16;1.83;;;1.20;;
20731;SDS011;10527;52.124;5.196;2023-04-24T03:23:43;2.03;;;1.10;;
20731;SDS011;10527;52.124;5.196;2023-04-24T03:26:10;1.25;;;0.93;;
20731;SDS011;10527;52.124;5.196;2023-04-24T03:28:37;1.27;;;0.90;;
20731;SDS011;10527;52.124;5.196;2023-04-24T03:31:04;1.35;;;1.00;;
20731;SDS011;10527;52.124;5.196;2023-04-24T03:33:30;1.15;;;0.85;;
20731;SDS011;10527;52.124;5.196;2023-04-24T03:35:57;1.60;;;0.85;;
20731;SDS011;10527;52.124;5.196;2023-04-24T03:38:24;1.33;;;0.80;;
20731;SDS011;10527;52.124;5.196;2023-04-24T03:40:51;2.35;;;0.80;;
20731;SDS011;10527;52.124;5.196;2023-04-24T03:43:18;1.75;;;1.00;;
20731;SDS011;10527;52.124;5.196;2023-04-24T03:45:44;0.95;;;0.80;;
20731;SDS011;10527;52.124;5.196;2023-04-24T03:48:11;1.73;;;0.97;;
20731;SDS011;10527;52.124;5.196;2023-04-24T03:50:38;2.20;;;0.93;;
20731;SDS011;10527;52.124;5.196;2023-04-24T03:53:05;1.13;;;1.00;;
20731;SDS011;10527;52.124;5.196;2023-04-24T03:55:32;1.10;;;1.00;;
20731;SDS011;10527;52.124;5.196;2023-04-24T03:57:59;1.48;;;1.15;;
20731;SDS011;10527;52.124;5.196;2023-04-24T04:00:25;2.47;;;1.65;;
20731;SDS011;10527;52.124;5.196;2023-04-24T04:02:52;2.72;;;1.77;;
20731;SDS011;10527;52.124;5.196;2023-04-24T04:05:19;1.70;;;1.60;;
20731;SDS011;10527;52.124;5.196;2023-04-24T04:07:46;3.72;;;2.05;;
20731;SDS011;10527;52.124;5.196;2023-04-24T04:10:13;2.70;;;1.77;;
20731;SDS011;10527;52.124;5.196;2023-04-24T04:12:40;2.88;;;2.30;;
20731;SDS011;10527;52.124;5.196;2023-04-24T04:15:08;3.10;;;2.72;;
20731;SDS011;10527;52.124;5.196;2023-04-24T04:17:35;3.40;;;2.45;;
20731;SDS011;10527;52.124;5.196;2023-04-24T04:20:04;3.90;;;2.35;;
20731;SDS011;10527;52.124;5.196;2023-04-24T04:22:40;2.83;;;2.03;;
20731;SDS011;10527;52.124;5.196;2023-04-24T04:25:09;3.45;;;3.05;;
20731;SDS011;10527;52.124;5.196;2023-04-24T04:27:39;3.15;;;2.47;;
20731;SDS011;10527;52.124;5.196;2023-04-24T04:30:07;8.15;;;3.45;;
20731;SDS011;10527;52.124;5.196;2023-04-24T04:32:36;3.22;;;2.65;;
20731;SDS011;10527;52.124;5.196;2023-04-24T04:35:03;2.95;;;2.17;;
20731;SDS011;10527;52.124;5.196;2023-04-24T04:37:31;3.35;;;2.50;;
20731;SDS011;10527;52.124;5.196;2023-04-24T04:40:01;2.42;;;1.90;;
20731;SDS011;10527;52.124;5.196;2023-04-24T04:42:32;2.53;;;2.30;;
20731;SDS011;10527;52.124;5.196;2023-04-24T04:45:00;3.22;;;2.65;;
20731;SDS011;10527;52.124;5.196;2023-04-24T04:47:28;3.75;;;2.53;;
20731;SDS011;10527;52.124;5.196;2023-04-24T04:49:58;3.53;;;2.55;;
20731;SDS011;10527;52.124;5.196;2023-04-24T04:52:25;3.30;;;2.42;;
20731;SDS011;10527;52.124;5.196;2023-04-24T04:54:53;4.47;;;2.63;;
20731;SDS011;10527;52.124;5.196;2023-04-24T04:57:19;4.10;;;2.65;;
20731;SDS011;10527;52.124;5.196;2023-04-24T04:59:46;3.28;;;2.55;;
20731;SDS011;10527;52.124;5.196;2023-04-24T05:02:13;4.75;;;2.95;;
20731;SDS011;10527;52.124;5.196;2023-04-24T05:04:41;2.95;;;2.28;;
20731;SDS011;10527;52.124;5.196;2023-04-24T05:07:08;3.70;;;2.63;;
20731;SDS011;10527;52.124;5.196;2023-04-24T05:09:35;3.22;;;2.63;;
20731;SDS011;10527;52.124;5.196;2023-04-24T05:12:03;3.15;;;2.58;;
20731;SDS011;10527;52.124;5.196;2023-04-24T05:14:30;4.10;;;3.08;;
20731;SDS011;10527;52.124;5.196;2023-04-24T05:16:56;4.03;;;2.92;;
20731;SDS011;10527;52.124;5.196;2023-04-24T05:19:24;2.65;;;1.80;;
20731;SDS011;10527;52.124;5.196;2023-04-24T05:21:51;3.83;;;2.00;;
20731;SDS011;10527;52.124;5.196;2023-04-24T05:24:20;2.13;;;1.27;;
20731;SDS011;10527;52.124;5.196;2023-04-24T05:26:47;1.58;;;1.27;;
20731;SDS011;10527;52.124;5.196;2023-04-24T05:29:14;1.85;;;1.60;;
20731;SDS011;10527;52.124;5.196;2023-04-24T05:31:41;5.15;;;4.68;;
20731;SDS011;10527;52.124;5.196;2023-04-24T05:34:08;9.73;;;8.82;;
20731;SDS011;10527;52.124;5.196;2023-04-24T05:36:36;32.47;;;24.17;;
20731;SDS011;10527;52.124;5.196;2023-04-24T05:39:02;8.87;;;7.13;;
20731;SDS011;10527;52.124;5.196;2023-04-24T05:41:33;2.53;;;2.17;;
20731;SDS011;10527;52.124;5.196;2023-04-24T05:44:00;2.20;;;1.20;;
20731;SDS011;10527;52.124;5.196;2023-04-24T05:46:27;0.50;;;0.50;;
20731;SDS011;10527;52.124;5.196;2023-04-24T05:48:54;0.80;;;0.50;;
20731;SDS011;10527;52.124;5.196;2023-04-24T05:51:21;2.37;;;1.40;;
20731;SDS011;10527;52.124;5.196;2023-04-24T05:53:47;0.82;;;0.70;;
20731;SDS011;10527;52.124;5.196;2023-04-24T05:56:14;2.40;;;1.33;;
20731;SDS011;10527;52.124;5.196;2023-04-24T05:58:42;0.93;;;0.70;;
20731;SDS011;10527;52.124;5.196;2023-04-24T06:01:08;0.93;;;0.57;;
20731;SDS011;10527;52.124;5.196;2023-04-24T06:03:35;1.23;;;0.60;;
20731;SDS011;10527;52.124;5.196;2023-04-24T06:06:06;1.50;;;0.75;;
20731;SDS011;10527;52.124;5.196;2023-04-24T06:08:35;1.45;;;0.95;;
20731;SDS011;10527;52.124;5.196;2023-04-24T06:11:02;1.27;;;0.50;;
20731;SDS011;10527;52.124;5.196;2023-04-24T06:13:30;0.80;;;0.80;;
20731;SDS011;10527;52.124;5.196;2023-04-24T06:15:56;2.30;;;0.80;;
20731;SDS011;10527;52.124;5.196;2023-04-24T06:18:23;1.67;;;1.00;;
20731;SDS011;10527;52.124;5.196;2023-04-24T06:20:50;2.63;;;1.10;;
20731;SDS011;10527;52.124;5.196;2023-04-24T06:23:17;3.97;;;2.40;;
20731;SDS011;10527;52.124;5.196;2023-04-24T06:25:44;7.83;;;3.70;;
20731;SDS011;10527;52.124;5.196;2023-04-24T06:28:11;6.80;;;4.20;;
20731;SDS011;10527;52.124;5.196;2023-04-24T06:30:38;9.83;;;5.63;;
20731;SDS011;10527;52.124;5.196;2023-04-24T06:33:05;9.77;;;6.20;;
20731;SDS011;10527;52.124;5.196;2023-04-24T06:35:45;6.67;;;4.87;;
20731;SDS011;10527;52.124;5.196;2023-04-24T06:38:12;9.93;;;6.23;;
20731;SDS011;10527;52.124;5.196;2023-04-24T06:40:38;10.97;;;6.43;;
20731;SDS011;10527;52.124;5.196;2023-04-24T06:43:05;7.30;;;5.87;;
20731;SDS011;10527;52.124;5.196;2023-04-24T06:45:32;11.57;;;6.90;;
20731;SDS011;10527;52.124;5.196;2023-04-24T06:47:59;9.17;;;6.30;;
20731;SDS011;10527;52.124;5.196;2023-04-24T06:50:26;10.47;;;6.57;;
20731;SDS011;10527;52.124;5.196;2023-04-24T06:52:53;12.37;;;6.90;;
20731;SDS011;10527;52.124;5.196;2023-04-24T06:55:19;10.70;;;6.33;;
20731;SDS011;10527;52.124;5.196;2023-04-24T06:57:46;9.90;;;7.00;;
20731;SDS011;10527;52.124;5.196;2023-04-24T07:00:13;9.73;;;6.70;;
20731;SDS011;10527;52.124;5.196;2023-04-24T07:02:40;8.77;;;6.47;;
20731;SDS011;10527;52.124;5.196;2023-04-24T07:05:07;11.80;;;6.07;;
20731;SDS011;10527;52.124;5.196;2023-04-24T07:07:34;11.00;;;6.43;;
20731;SDS011;10527;52.124;5.196;2023-04-24T07:10:04;11.30;;;5.83;;
20731;SDS011;10527;52.124;5.196;2023-04-24T07:12:31;9.33;;;5.80;;
20731;SDS011;10527;52.124;5.196;2023-04-24T07:14:59;13.98;;;7.13;;
20731;SDS011;10527;52.124;5.196;2023-04-24T07:17:27;10.17;;;5.80;;
20731;SDS011;10527;52.124;5.196;2023-04-24T07:19:53;6.93;;;6.13;;
20731;SDS011;10527;52.124;5.196;2023-04-24T07:22:20;10.07;;;5.87;;
20731;SDS011;10527;52.124;5.196;2023-04-24T07:24:47;11.40;;;6.20;;
20731;SDS011;10527;52.124;5.196;2023-04-24T07:27:14;13.17;;;5.83;;
20731;SDS011;10527;52.124;5.196;2023-04-24T07:29:41;11.67;;;5.93;;
20731;SDS011;10527;52.124;5.196;2023-04-24T07:32:09;10.53;;;6.53;;
20731;SDS011;10527;52.124;5.196;2023-04-24T07:34:38;9.53;;;6.33;;
20731;SDS011;10527;52.124;5.196;2023-04-24T07:37:06;12.20;;;6.20;;
20731;SDS011;10527;52.124;5.196;2023-04-24T07:39:32;9.17;;;5.17;;
20731;SDS011;10527;52.124;5.196;2023-04-24T07:42:00;12.77;;;6.30;;
20731;SDS011;10527;52.124;5.196;2023-04-24T07:44:27;11.63;;;5.00;;
20731;SDS011;10527;52.124;5.196;2023-04-24T07:46:54;9.87;;;4.67;;
20731;SDS011;10527;52.124;5.196;2023-04-24T07:49:22;14.37;;;4.80;;
20731;SDS011;10527;52.124;5.196;2023-04-24T07:51:49;12.07;;;5.10;;
20731;SDS011;10527;52.124;5.196;2023-04-24T07:54:16;18.33;;;4.47;;
20731;SDS011;10527;52.124;5.196;2023-04-24T07:56:45;11.83;;;4.73;;
20731;SDS011;10527;52.124;5.196;2023-04-24T07:59:12;12.27;;;3.77;;
20731;SDS011;10527;52.124;5.196;2023-04-24T08:01:39;12.40;;;4.00;;
20731;SDS011;10527;52.124;5.196;2023-04-24T08:04:06;12.03;;;4.17;;
20731;SDS011;10527;52.124;5.196;2023-04-24T08:06:34;12.10;;;3.63;;
20731;SDS011;10527;52.124;5.196;2023-04-24T08:09:01;14.80;;;3.40;;
20731;SDS011;10527;52.124;5.196;2023-04-24T08:11:29;13.30;;;3.67;;
20731;SDS011;10527;52.124;5.196;2023-04-24T08:13:55;14.27;;;3.10;;
20731;SDS011;10527;52.124;5.196;2023-04-24T08:16:22;13.17;;;3.17;;
20731;SDS011;10527;52.124;5.196;2023-04-24T08:18:51;10.33;;;3.10;;
20731;SDS011;10527;52.124;5.196;2023-04-24T08:21:19;9.40;;;3.80;;
20731;SDS011;10527;52.124;5.196;2023-04-24T08:23:46;7.53;;;2.27;;
20731;SDS011;10527;52.124;5.196;2023-04-24T08:26:13;11.63;;;2.95;;
20731;SDS011;10527;52.124;5.196;2023-04-24T08:28:40;20.53;;;4.53;;
20731;SDS011;10527;52.124;5.196;2023-04-24T08:31:08;11.60;;;3.10;;
20731;SDS011;10527;52.124;5.196;2023-04-24T08:33:35;12.23;;;2.43;;
20731;SDS011;10527;52.124;5.196;2023-04-24T08:36:02;11.77;;;2.57;;
20731;SDS011;10527;52.124;5.196;2023-04-24T08:38:30;8.13;;;2.00;;
20731;SDS011;10527;52.124;5.196;2023-04-24T08:40:58;7.22;;;1.92;;
20731;SDS011;10527;52.124;5.196;2023-04-24T08:43:27;6.35;;;1.88;;
20731;SDS011;10527;52.124;5.196;2023-04-24T08:45:55;7.93;;;1.97;;
20731;SDS011;10527;52.124;5.196;2023-04-24T08:48:24;6.80;;;2.17;;
20731;SDS011;10527;52.124;5.196;2023-04-24T08:50:57;11.60;;;2.70;;
20731;SDS011;10527;52.124;5.196;2023-04-24T08:53:25;7.70;;;2.70;;
20731;SDS011;10527;52.124;5.196;2023-04-24T08:55:54;10.05;;;1.98;;
20731;SDS011;10527;52.124;5.196;2023-04-24T08:58:24;7.80;;;1.90;;
20731;SDS011;10527;52.124;5.196;2023-04-24T09:00:56;7.18;;;1.88;;
20731;SDS011;10527;52.124;5.196;2023-04-24T09:03:28;9.70;;;2.50;;
20731;SDS011;10527;52.124;5.196;2023-04-24T09:05:57;12.95;;;3.33;;
20731;SDS011;10527;52.124;5.196;2023-04-24T09:08:25;8.13;;;1.87;;
20731;SDS011;10527;52.124;5.196;2023-04-24T09:10:52;7.43;;;2.27;;
20731;SDS011;10527;52.124;5.196;2023-04-24T09:13:19;6.97;;;2.28;;
20731;SDS011;10527;52.124;5.196;2023-04-24T09:15:47;8.07;;;2.17;;
20731;SDS011;10527;52.124;5.196;2023-04-24T09:18:14;6.10;;;1.92;;
20731;SDS011;10527;52.124;5.196;2023-04-24T09:20:56;10.00;;;1.90;;
20731;SDS011;10527;52.124;5.196;2023-04-24T09:23:34;7.28;;;2.17;;
20731;SDS011;10527;52.124;5.196;2023-04-24T09:26:01;12.23;;;2.13;;
20731;SDS011;10527;52.124;5.196;2023-04-24T09:28:32;6.10;;;1.70;;
20731;SDS011;10527;52.124;5.196;2023-04-24T09:31:04;7.00;;;1.80;;
20731;SDS011;10527;52.124;5.196;2023-04-24T09:34:01;8.20;;;1.70;;
20731;SDS011;10527;52.124;5.196;2023-04-24T09:39:08;3.67;;;1.57;;
20731;SDS011;10527;52.124;5.196;2023-04-24T09:41:46;7.80;;;2.37;;
20731;SDS011;10527;52.124;5.196;2023-04-24T09:44:20;8.50;;;2.63;;
20731;SDS011;10527;52.124;5.196;2023-04-24T09:46:51;5.20;;;1.30;;
20731;SDS011;10527;52.124;5.196;2023-04-24T09:49:28;4.30;;;1.50;;
20731;SDS011;10527;52.124;5.196;2023-04-24T09:52:06;7.00;;;1.50;;
20731;SDS011;10527;52.124;5.196;2023-04-24T09:54:54;4.40;;;1.50;;
20731;SDS011;10527;52.124;5.196;2023-04-24T09:57:21;7.93;;;2.10;;
20731;SDS011;10527;52.124;5.196;2023-04-24T09:59:48;5.23;;;1.23;;
20731;SDS011;10527;52.124;5.196;2023-04-24T10:02:19;5.65;;;1.30;;
20731;SDS011;10527;52.124;5.196;2023-04-24T10:04:54;7.22;;;1.15;;
20731;SDS011;10527;52.124;5.196;2023-04-24T10:07:25;5.77;;;1.10;;
20731;SDS011;10527;52.124;5.196;2023-04-24T10:09:52;3.35;;;1.15;;
20731;SDS011;10527;52.124;5.196;2023-04-24T10:12:20;3.25;;;1.30;;
20731;SDS011;10527;52.124;5.196;2023-04-24T10:14:49;3.05;;;0.80;;
20731;SDS011;10527;52.124;5.196;2023-04-24T10:17:16;2.30;;;0.97;;
20731;SDS011;10527;52.124;5.196;2023-04-24T10:19:46;5.57;;;0.93;;
20731;SDS011;10527;52.124;5.196;2023-04-24T10:22:14;3.40;;;0.90;;
20731;SDS011;10527;52.124;5.196;2023-04-24T10:24:43;3.85;;;1.52;;
20731;SDS011;10527;52.124;5.196;2023-04-24T10:27:14;2.08;;;0.57;;
20731;SDS011;10527;52.124;5.196;2023-04-24T10:29:43;1.87;;;0.60;;
20731;SDS011;10527;52.124;5.196;2023-04-24T10:32:11;6.63;;;1.45;;
20731;SDS011;10527;52.124;5.196;2023-04-24T10:34:38;3.00;;;0.73;;
20731;SDS011;10527;52.124;5.196;2023-04-24T10:37:05;3.28;;;0.70;;
20731;SDS011;10527;52.124;5.196;2023-04-24T10:39:34;2.78;;;0.95;;
20731;SDS011;10527;52.124;5.196;2023-04-24T10:42:13;1.67;;;0.65;;
20731;SDS011;10527;52.124;5.196;2023-04-24T10:44:42;2.88;;;0.80;;
20731;SDS011;10527;52.124;5.196;2023-04-24T10:47:15;2.45;;;0.60;;
20731;SDS011;10527;52.124;5.196;2023-04-24T10:49:41;4.13;;;0.70;;
20731;SDS011;10527;52.124;5.196;2023-04-24T10:52:09;5.32;;;0.80;;
20731;SDS011;10527;52.124;5.196;2023-04-24T10:57:25;3.83;;;0.80;;
20731;SDS011;10527;52.124;5.196;2023-04-24T11:02:46;6.30;;;0.88;;
20731;SDS011;10527;52.124;5.196;2023-04-24T11:05:17;3.88;;;0.90;;
20731;SDS011;10527;52.124;5.196;2023-04-24T11:10:44;3.40;;;0.80;;
20731;SDS011;10527;52.124;5.196;2023-04-24T11:13:16;4.78;;;0.77;;
20731;SDS011;10527;52.124;5.196;2023-04-24T11:18:42;3.05;;;0.77;;
20731;SDS011;10527;52.124;5.196;2023-04-24T11:21:12;2.10;;;0.77;;
20731;SDS011;10527;52.124;5.196;2023-04-24T11:23:42;4.60;;;0.75;;
20731;SDS011;10527;52.124;5.196;2023-04-24T11:26:09;4.30;;;1.10;;
20731;SDS011;10527;52.124;5.196;2023-04-24T11:28:51;3.33;;;0.60;;
20731;SDS011;10527;52.124;5.196;2023-04-24T11:31:33;2.15;;;0.75;;
20731;SDS011;10527;52.124;5.196;2023-04-24T11:34:11;2.08;;;0.50;;
20731;SDS011;10527;52.124;5.196;2023-04-24T11:36:43;1.60;;;0.50;;
20731;SDS011;10527;52.124;5.196;2023-04-24T11:39:14;1.45;;;0.50;;
20731;SDS011;10527;52.124;5.196;2023-04-24T11:41:41;0.73;;;0.40;;
20731;SDS011;10527;52.124;5.196;2023-04-24T11:44:08;3.30;;;0.65;;
20731;SDS011;10527;52.124;5.196;2023-04-24T11:46:37;1.23;;;0.50;;
20731;SDS011;10527;52.124;5.196;2023-04-24T11:49:06;0.93;;;0.50;;
20731;SDS011;10527;52.124;5.196;2023-04-24T11:51:33;0.55;;;0.35;;
20731;SDS011;10527;52.124;5.196;2023-04-24T11:54:17;2.75;;;0.60;;
20731;SDS011;10527;52.124;5.196;2023-04-24T11:56:45;1.77;;;0.60;;
20731;SDS011;10527;52.124;5.196;2023-04-24T11:59:13;2.22;;;0.65;;
20731;SDS011;10527;52.124;5.196;2023-04-24T12:01:47;3.28;;;0.63;;
20731;SDS011;10527;52.124;5.196;2023-04-24T12:04:15;2.00;;;0.90;;
20731;SDS011;10527;52.124;5.196;2023-04-24T12:06:58;4.50;;;0.82;;
20731;SDS011;10527;52.124;5.196;2023-04-24T12:09:28;3.45;;;0.77;;
20731;SDS011;10527;52.124;5.196;2023-04-24T12:12:05;4.45;;;0.60;;
20731;SDS011;10527;52.124;5.196;2023-04-24T12:14:33;4.10;;;1.00;;
20731;SDS011;10527;52.124;5.196;2023-04-24T12:17:16;3.65;;;0.90;;
20731;SDS011;10527;52.124;5.196;2023-04-24T12:19:47;3.08;;;0.80;;
20731;SDS011;10527;52.124;5.196;2023-04-24T12:22:14;7.35;;;0.93;;
20731;SDS011;10527;52.124;5.196;2023-04-24T12:27:32;3.42;;;0.98;;
20731;SDS011;10527;52.124;5.196;2023-04-24T12:30:00;5.05;;;1.00;;
20731;SDS011;10527;52.124;5.196;2023-04-24T12:32:29;4.80;;;1.13;;
20731;SDS011;10527;52.124;5.196;2023-04-24T12:34:56;8.13;;;1.30;;
20731;SDS011;10527;52.124;5.196;2023-04-24T12:37:24;3.67;;;1.10;;
20731;SDS011;10527;52.124;5.196;2023-04-24T12:40:08;4.00;;;1.42;;
20731;SDS011;10527;52.124;5.196;2023-04-24T12:42:43;5.20;;;1.00;;
20731;SDS011;10527;52.124;5.196;2023-04-24T12:45:16;7.32;;;1.10;;
20731;SDS011;10527;52.124;5.196;2023-04-24T12:47:45;5.22;;;1.65;;
20731;SDS011;10527;52.124;5.196;2023-04-24T12:50:14;9.05;;;1.38;;
20731;SDS011;10527;52.124;5.196;2023-04-24T12:52:42;7.82;;;1.75;;
20731;SDS011;10527;52.124;5.196;2023-04-24T12:55:09;4.75;;;1.50;;
20731;SDS011;10527;52.124;5.196;2023-04-24T12:57:38;8.15;;;1.58;;
20731;SDS011;10527;52.124;5.196;2023-04-24T13:00:07;14.98;;;8.40;;
20731;SDS011;10527;52.124;5.196;2023-04-24T13:02:36;36.85;;;16.63;;
20731;SDS011;10527;52.124;5.196;2023-04-24T13:05:03;17.45;;;7.55;;
20731;SDS011;10527;52.124;5.196;2023-04-24T13:07:32;10.25;;;3.17;;
20731;SDS011;10527;52.124;5.196;2023-04-24T13:10:00;9.98;;;2.15;;
20731;SDS011;10527;52.124;5.196;2023-04-24T13:12:26;8.75;;;2.03;;
20731;SDS011;10527;52.124;5.196;2023-04-24T13:14:53;8.88;;;2.72;;
20731;SDS011;10527;52.124;5.196;2023-04-24T13:17:21;7.75;;;2.00;;
20731;SDS011;10527;52.124;5.196;2023-04-24T13:19:48;6.50;;;2.13;;
20731;SDS011;10527;52.124;5.196;2023-04-24T13:22:17;12.10;;;2.80;;
20731;SDS011;10527;52.124;5.196;2023-04-24T13:24:44;6.37;;;1.70;;
20731;SDS011;10527;52.124;5.196;2023-04-24T13:27:14;11.95;;;2.00;;
20731;SDS011;10527;52.124;5.196;2023-04-24T13:29:42;10.65;;;2.47;;
20731;SDS011;10527;52.124;5.196;2023-04-24T13:32:10;10.23;;;2.60;;
20731;SDS011;10527;52.124;5.196;2023-04-24T13:34:37;8.10;;;1.90;;
20731;SDS011;10527;52.124;5.196;2023-04-24T13:37:04;9.82;;;2.20;;
20731;SDS011;10527;52.124;5.196;2023-04-24T13:39:31;5.65;;;1.98;;
20731;SDS011;10527;52.124;5.196;2023-04-24T13:41:58;9.02;;;2.58;;
20731;SDS011;10527;52.124;5.196;2023-04-24T13:44:29;5.88;;;1.60;;
20731;SDS011;10527;52.124;5.196;2023-04-24T13:46:57;9.27;;;2.08;;
20731;SDS011;10527;52.124;5.196;2023-04-24T13:49:25;13.18;;;2.95;;
20731;SDS011;10527;52.124;5.196;2023-04-24T13:51:54;5.85;;;2.40;;
20731;SDS011;10527;52.124;5.196;2023-04-24T13:54:22;7.63;;;1.90;;
20731;SDS011;10527;52.124;5.196;2023-04-24T13:56:51;9.00;;;1.73;;
20731;SDS011;10527;52.124;5.196;2023-04-24T13:59:19;8.80;;;2.88;;
20731;SDS011;10527;52.124;5.196;2023-04-24T14:01:47;7.55;;;2.58;;
20731;SDS011;10527;52.124;5.196;2023-04-24T14:04:14;6.25;;;1.75;;
20731;SDS011;10527;52.124;5.196;2023-04-24T14:06:42;6.78;;;1.65;;
20731;SDS011;10527;52.124;5.196;2023-04-24T14:09:09;11.10;;;2.22;;
20731;SDS011;10527;52.124;5.196;2023-04-24T14:11:36;12.05;;;3.38;;
20731;SDS011;10527;52.124;5.196;2023-04-24T14:14:03;6.05;;;2.15;;
20731;SDS011;10527;52.124;5.196;2023-04-24T14:16:30;25.70;;;15.00;;
20731;SDS011;10527;52.124;5.196;2023-04-24T14:18:57;33.08;;;19.75;;
20731;SDS011;10527;52.124;5.196;2023-04-24T14:21:24;11.38;;;5.40;;
20731;SDS011;10527;52.124;5.196;2023-04-24T14:23:51;7.60;;;2.90;;
20731;SDS011;10527;52.124;5.196;2023-04-24T14:26:18;4.10;;;1.80;;
20731;SDS011;10527;52.124;5.196;2023-04-24T14:28:48;8.00;;;2.03;;
20731;SDS011;10527;52.124;5.196;2023-04-24T14:31:17;7.75;;;1.85;;
20731;SDS011;10527;52.124;5.196;2023-04-24T14:33:44;5.15;;;2.08;;
20731;SDS011;10527;52.124;5.196;2023-04-24T14:36:12;6.93;;;2.03;;
20731;SDS011;10527;52.124;5.196;2023-04-24T14:38:38;4.07;;;1.80;;
20731;SDS011;10527;52.124;5.196;2023-04-24T14:41:05;8.23;;;1.83;;
20731;SDS011;10527;52.124;5.196;2023-04-24T14:43:39;7.15;;;2.08;;
20731;SDS011;10527;52.124;5.196;2023-04-24T14:46:09;9.35;;;2.30;;
20731;SDS011;10527;52.124;5.196;2023-04-24T14:48:36;8.15;;;2.55;;
20731;SDS011;10527;52.124;5.196;2023-04-24T14:51:03;9.90;;;2.45;;
20731;SDS011;10527;52.124;5.196;2023-04-24T14:53:32;6.55;;;1.98;;
20731;SDS011;10527;52.124;5.196;2023-04-24T14:55:59;7.22;;;2.20;;
20731;SDS011;10527;52.124;5.196;2023-04-24T14:58:26;6.63;;;1.60;;
20731;SDS011;10527;52.124;5.196;2023-04-24T15:00:52;8.73;;;2.40;;
20731;SDS011;10527;52.124;5.196;2023-04-24T15:03:20;5.50;;;1.85;;
20731;SDS011;10527;52.124;5.196;2023-04-24T15:05:48;7.75;;;2.38;;
20731;SDS011;10527;52.124;5.196;2023-04-24T15:08:16;8.98;;;2.10;;
20731;SDS011;10527;52.124;5.196;2023-04-24T15:10:43;6.57;;;2.13;;
20731;SDS011;10527;52.124;5.196;2023-04-24T15:13:10;11.05;;;2.47;;